sensor_id;sensor_type;location;lat;lon;timestamp;temperature;humidity
3713;DHT22;1872;51.406;6.856;2023-05-16T00:00:38;11.70;99.90
3713;DHT22;1872;51.406;6.856;2023-05-16T00:03:05;11.60;99.90
3713;DHT22;1872;51.406;6.856;2023-05-16T00:05:30;11.60;99.90
3713;DHT22;1872;51.406;6.856;2023-05-16T00:07:56;11.60;99.90
3713;DHT22;1872;51.406;6.856;2023-05-16T00:10:21;11.60;99.90
3713;DHT22;1872;51.406;6.856;2023-05-16T00:12:47;11.50;99.90
3713;DHT22;1872;51.406;6.856;2023-05-16T00:15:16;11.50;99.90
3713;DHT22;1872;51.406;6.856;2023-05-16T00:17:42;11.50;99.90
3713;DHT22;1872;51.406;6.856;2023-05-16T00:20:11;11.50;99.90
3713;DHT22;1872;51.406;6.856;2023-05-16T00:22:38;11.50;99.90
3713;DHT22;1872;51.406;6.856;2023-05-16T00:25:04;11.40;99.90
3713;DHT22;1872;51.406;6.856;2023-05-16T00:27:32;11.40;99.90
3713;DHT22;1872;51.406;6.856;2023-05-16T00:29:57;11.30;99.90
3713;DHT22;1872;51.406;6.856;2023-05-16T00:32:23;11.30;99.90
3713;DHT22;1872;51.406;6.856;2023-05-16T00:34:48;11.30;99.90
3713;DHT22;1872;51.406;6.856;2023-05-16T00:37:14;11.30;99.90
3713;DHT22;1872;51.406;6.856;2023-05-16T00:39:40;11.30;99.90
3713;DHT22;1872;51.406;6.856;2023-05-16T00:42:06;11.20;99.90
3713;DHT22;1872;51.406;6.856;2023-05-16T00:44:31;11.20;99.90
3713;DHT22;1872;51.406;6.856;2023-05-16T00:46:57;11.10;99.90
3713;DHT22;1872;51.406;6.856;2023-05-16T00:49:24;11.10;99.90
3713;DHT22;1872;51.406;6.856;2023-05-16T00:51:51;11.00;99.90
3713;DHT22;1872;51.406;6.856;2023-05-16T00:54:18;11.00;99.90
3713;DHT22;1872;51.406;6.856;2023-05-16T00:56:46;10.90;99.90
3713;DHT22;1872;51.406;6.856;2023-05-16T00:59:12;10.90;99.90
3713;DHT22;1872;51.406;6.856;2023-05-16T01:01:38;10.90;99.90
3713;DHT22;1872;51.406;6.856;2023-05-16T01:04:06;10.80;99.90
3713;DHT22;1872;51.406;6.856;2023-05-16T01:06:32;10.80;99.90
3713;DHT22;1872;51.406;6.856;2023-05-16T01:08:58;10.70;99.90
3713;DHT22;1872;51.406;6.856;2023-05-16T01:11:35;10.70;99.90
3713;DHT22;1872;51.406;6.856;2023-05-16T01:22:34;10.60;99.90
3713;DHT22;1872;51.406;6.856;2023-05-16T01:25:20;10.60;99.90
3713;DHT22;1872;51.406;6.856;2023-05-16T01:27:46;10.50;99.90
3713;DHT22;1872;51.406;6.856;2023-05-16T01:30:18;10.50;99.90
3713;DHT22;1872;51.406;6.856;2023-05-16T01:32:44;10.50;99.90
3713;DHT22;1872;51.406;6.856;2023-05-16T01:35:13;10.40;99.90
3713;DHT22;1872;51.406;6.856;2023-05-16T01:37:58;10.40;99.90
3713;DHT22;1872;51.406;6.856;2023-05-16T01:40:28;10.30;99.90
3713;DHT22;1872;51.406;6.856;2023-05-16T01:42:55;10.30;99.90
3713;DHT22;1872;51.406;6.856;2023-05-16T01:45:30;10.30;99.90
3713;DHT22;1872;51.406;6.856;2023-05-16T01:48:17;10.30;99.90
3713;DHT22;1872;51.406;6.856;2023-05-16T01:50:51;10.30;99.90
3713;DHT22;1872;51.406;6.856;2023-05-16T01:53:22;10.20;99.90
3713;DHT22;1872;51.406;6.856;2023-05-16T01:55:56;10.20;99.90
3713;DHT22;1872;51.406;6.856;2023-05-16T01:58:26;10.20;99.90
3713;DHT22;1872;51.406;6.856;2023-05-16T02:01:02;10.10;99.90
3713;DHT22;1872;51.406;6.856;2023-05-16T02:03:29;10.10;99.90
3713;DHT22;1872;51.406;6.856;2023-05-16T02:05:55;10.10;99.90
3713;DHT22;1872;51.406;6.856;2023-05-16T02:08:22;10.10;99.90
3713;DHT22;1872;51.406;6.856;2023-05-16T02:10:48;10.00;99.90
3713;DHT22;1872;51.406;6.856;2023-05-16T02:13:13;10.00;99.90
3713;DHT22;1872;51.406;6.856;2023-05-16T02:15:39;10.00;99.90
3713;DHT22;1872;51.406;6.856;2023-05-16T02:18:05;9.90;99.90
3713;DHT22;1872;51.406;6.856;2023-05-16T02:20:30;9.90;99.90
3713;DHT22;1872;51.406;6.856;2023-05-16T02:22:56;9.90;99.90
3713;DHT22;1872;51.406;6.856;2023-05-16T02:25:23;9.90;99.90
3713;DHT22;1872;51.406;6.856;2023-05-16T02:27:48;9.90;99.90
3713;DHT22;1872;51.406;6.856;2023-05-16T02:30:14;9.90;99.90
3713;DHT22;1872;51.406;6.856;2023-05-16T02:32:40;9.90;99.90
3713;DHT22;1872;51.406;6.856;2023-05-16T02:35:09;9.90;99.90
3713;DHT22;1872;51.406;6.856;2023-05-16T02:37:36;9.80;99.90
3713;DHT22;1872;51.406;6.856;2023-05-16T02:40:03;9.80;99.90
3713;DHT22;1872;51.406;6.856;2023-05-16T02:42:32;9.80;99.90
3713;DHT22;1872;51.406;6.856;2023-05-16T02:44:58;9.90;99.90
3713;DHT22;1872;51.406;6.856;2023-05-16T02:47:23;9.80;99.90
3713;DHT22;1872;51.406;6.856;2023-05-16T02:49:49;9.80;99.90
3713;DHT22;1872;51.406;6.856;2023-05-16T02:52:17;9.80;99.90
3713;DHT22;1872;51.406;6.856;2023-05-16T02:54:42;9.80;99.90
3713;DHT22;1872;51.406;6.856;2023-05-16T02:57:09;9.80;99.90
3713;DHT22;1872;51.406;6.856;2023-05-16T02:59:35;9.80;99.90
3713;DHT22;1872;51.406;6.856;2023-05-16T03:02:01;9.80;99.90
3713;DHT22;1872;51.406;6.856;2023-05-16T03:04:27;9.80;99.90
3713;DHT22;1872;51.406;6.856;2023-05-16T03:06:52;9.70;99.90
3713;DHT22;1872;51.406;6.856;2023-05-16T03:09:19;9.70;99.90
3713;DHT22;1872;51.406;6.856;2023-05-16T03:11:46;9.70;99.90
3713;DHT22;1872;51.406;6.856;2023-05-16T03:14:12;9.70;99.90
3713;DHT22;1872;51.406;6.856;2023-05-16T03:16:37;9.70;99.90
3713;DHT22;1872;51.406;6.856;2023-05-16T03:19:04;9.70;99.90
3713;DHT22;1872;51.406;6.856;2023-05-16T03:21:30;9.60;99.90
3713;DHT22;1872;51.406;6.856;2023-05-16T03:23:56;9.60;99.90
3713;DHT22;1872;51.406;6.856;2023-05-16T03:26:25;9.60;99.90
3713;DHT22;1872;51.406;6.856;2023-05-16T03:28:51;9.60;99.90
3713;DHT22;1872;51.406;6.856;2023-05-16T03:31:17;9.50;99.90
3713;DHT22;1872;51.406;6.856;2023-05-16T03:33:43;9.60;99.90
3713;DHT22;1872;51.406;6.856;2023-05-16T03:36:09;9.60;99.90
3713;DHT22;1872;51.406;6.856;2023-05-16T03:38:35;9.50;99.90
3713;DHT22;1872;51.406;6.856;2023-05-16T03:41:01;9.50;99.90
3713;DHT22;1872;51.406;6.856;2023-05-16T03:43:27;9.50;99.90
3713;DHT22;1872;51.406;6.856;2023-05-16T03:45:53;9.40;99.90
3713;DHT22;1872;51.406;6.856;2023-05-16T03:48:20;9.40;99.90
3713;DHT22;1872;51.406;6.856;2023-05-16T03:50:46;9.40;99.90
3713;DHT22;1872;51.406;6.856;2023-05-16T03:53:12;9.30;99.90
3713;DHT22;1872;51.406;6.856;2023-05-16T03:55:38;9.30;99.90
3713;DHT22;1872;51.406;6.856;2023-05-16T03:58:04;9.30;99.90
3713;DHT22;1872;51.406;6.856;2023-05-16T04:00:29;9.20;99.90
3713;DHT22;1872;51.406;6.856;2023-05-16T04:02:55;9.20;99.90
3713;DHT22;1872;51.406;6.856;2023-05-16T04:05:21;9.20;99.90
3713;DHT22;1872;51.406;6.856;2023-05-16T04:07:46;9.10;99.90
3713;DHT22;1872;51.406;6.856;2023-05-16T04:10:13;9.10;99.90
3713;DHT22;1872;51.406;6.856;2023-05-16T04:12:38;9.10;99.90
3713;DHT22;1872;51.406;6.856;2023-05-16T04:15:05;9.10;99.90
3713;DHT22;1872;51.406;6.856;2023-05-16T04:17:31;9.00;99.90
3713;DHT22;1872;51.406;6.856;2023-05-16T04:19:56;9.00;99.90
3713;DHT22;1872;51.406;6.856;2023-05-16T04:22:22;9.00;99.90
3713;DHT22;1872;51.406;6.856;2023-05-16T04:24:48;8.90;99.90
3713;DHT22;1872;51.406;6.856;2023-05-16T04:27:14;8.90;99.90
3713;DHT22;1872;51.406;6.856;2023-05-16T04:29:39;8.80;99.90
3713;DHT22;1872;51.406;6.856;2023-05-16T04:32:05;8.80;99.90
3713;DHT22;1872;51.406;6.856;2023-05-16T04:34:32;8.80;99.90
3713;DHT22;1872;51.406;6.856;2023-05-16T04:36:58;8.80;99.90
3713;DHT22;1872;51.406;6.856;2023-05-16T04:39:24;8.80;99.90
3713;DHT22;1872;51.406;6.856;2023-05-16T04:41:50;8.80;99.90
3713;DHT22;1872;51.406;6.856;2023-05-16T04:44:16;8.80;99.90
3713;DHT22;1872;51.406;6.856;2023-05-16T04:46:42;8.80;99.90
3713;DHT22;1872;51.406;6.856;2023-05-16T04:49:08;8.80;99.90
3713;DHT22;1872;51.406;6.856;2023-05-16T04:51:35;8.80;99.90
3713;DHT22;1872;51.406;6.856;2023-05-16T04:54:01;8.90;99.90
3713;DHT22;1872;51.406;6.856;2023-05-16T04:56:26;8.80;99.90
3713;DHT22;1872;51.406;6.856;2023-05-16T04:58:52;8.90;99.90
3713;DHT22;1872;51.406;6.856;2023-05-16T05:01:19;8.90;99.90
3713;DHT22;1872;51.406;6.856;2023-05-16T05:03:44;8.90;99.90
3713;DHT22;1872;51.406;6.856;2023-05-16T05:06:10;8.90;99.90
3713;DHT22;1872;51.406;6.856;2023-05-16T05:08:37;8.90;99.90
3713;DHT22;1872;51.406;6.856;2023-05-16T05:11:02;9.00;99.90
3713;DHT22;1872;51.406;6.856;2023-05-16T05:13:28;9.00;99.90
3713;DHT22;1872;51.406;6.856;2023-05-16T05:15:54;9.00;99.90
3713;DHT22;1872;51.406;6.856;2023-05-16T05:18:19;8.90;99.90
3713;DHT22;1872;51.406;6.856;2023-05-16T05:20:45;8.90;99.90
3713;DHT22;1872;51.406;6.856;2023-05-16T05:23:11;8.90;99.90
3713;DHT22;1872;51.406;6.856;2023-05-16T05:25:38;8.90;99.90
3713;DHT22;1872;51.406;6.856;2023-05-16T05:28:03;9.00;99.90
3713;DHT22;1872;51.406;6.856;2023-05-16T05:30:29;9.00;99.90
3713;DHT22;1872;51.406;6.856;2023-05-16T05:32:55;9.10;99.90
3713;DHT22;1872;51.406;6.856;2023-05-16T05:35:21;9.10;99.90
3713;DHT22;1872;51.406;6.856;2023-05-16T05:37:46;9.10;99.90
3713;DHT22;1872;51.406;6.856;2023-05-16T05:40:12;9.20;99.90
3713;DHT22;1872;51.406;6.856;2023-05-16T05:42:38;9.20;99.90
3713;DHT22;1872;51.406;6.856;2023-05-16T05:45:04;9.30;99.90
3713;DHT22;1872;51.406;6.856;2023-05-16T05:47:30;9.30;99.90
3713;DHT22;1872;51.406;6.856;2023-05-16T05:49:57;9.40;99.90
3713;DHT22;1872;51.406;6.856;2023-05-16T05:52:23;9.50;99.90
3713;DHT22;1872;51.406;6.856;2023-05-16T05:54:49;9.90;99.90
3713;DHT22;1872;51.406;6.856;2023-05-16T05:57:14;10.60;99.90
3713;DHT22;1872;51.406;6.856;2023-05-16T05:59:40;11.30;99.90
3713;DHT22;1872;51.406;6.856;2023-05-16T06:02:07;11.40;99.90
3713;DHT22;1872;51.406;6.856;2023-05-16T06:04:33;11.60;99.90
3713;DHT22;1872;51.406;6.856;2023-05-16T06:06:58;11.90;99.90
3713;DHT22;1872;51.406;6.856;2023-05-16T06:09:24;12.20;99.90
3713;DHT22;1872;51.406;6.856;2023-05-16T06:11:49;13.20;99.90
3713;DHT22;1872;51.406;6.856;2023-05-16T06:14:15;14.10;99.90
3713;DHT22;1872;51.406;6.856;2023-05-16T06:16:41;14.60;99.90
3713;DHT22;1872;51.406;6.856;2023-05-16T06:19:07;15.30;99.90
3713;DHT22;1872;51.406;6.856;2023-05-16T06:21:33;15.70;99.90
3713;DHT22;1872;51.406;6.856;2023-05-16T06:23:58;15.90;99.90
3713;DHT22;1872;51.406;6.856;2023-05-16T06:26:24;16.10;99.90
3713;DHT22;1872;51.406;6.856;2023-05-16T06:28:50;16.30;99.90
3713;DHT22;1872;51.406;6.856;2023-05-16T06:31:15;16.50;99.90
3713;DHT22;1872;51.406;6.856;2023-05-16T06:33:41;16.60;99.90
3713;DHT22;1872;51.406;6.856;2023-05-16T06:36:07;16.60;99.90
3713;DHT22;1872;51.406;6.856;2023-05-16T06:38:32;16.60;99.90
3713;DHT22;1872;51.406;6.856;2023-05-16T06:40:58;16.70;99.90
3713;DHT22;1872;51.406;6.856;2023-05-16T06:43:24;16.50;99.90
3713;DHT22;1872;51.406;6.856;2023-05-16T06:45:49;16.30;99.90
3713;DHT22;1872;51.406;6.856;2023-05-16T06:48:17;16.20;99.90
3713;DHT22;1872;51.406;6.856;2023-05-16T06:50:47;15.90;99.90
3713;DHT22;1872;51.406;6.856;2023-05-16T06:53:12;15.20;99.90
3713;DHT22;1872;51.406;6.856;2023-05-16T06:55:38;14.70;99.90
3713;DHT22;1872;51.406;6.856;2023-05-16T06:58:04;14.20;99.90
3713;DHT22;1872;51.406;6.856;2023-05-16T07:00:30;13.80;99.90
3713;DHT22;1872;51.406;6.856;2023-05-16T07:02:55;13.40;99.90
3713;DHT22;1872;51.406;6.856;2023-05-16T07:05:21;13.00;99.90
3713;DHT22;1872;51.406;6.856;2023-05-16T07:07:46;12.80;99.90
3713;DHT22;1872;51.406;6.856;2023-05-16T07:10:14;12.70;99.90
3713;DHT22;1872;51.406;6.856;2023-05-16T07:12:41;12.50;99.90
3713;DHT22;1872;51.406;6.856;2023-05-16T07:15:08;12.20;99.90
3713;DHT22;1872;51.406;6.856;2023-05-16T07:17:33;12.20;99.90
3713;DHT22;1872;51.406;6.856;2023-05-16T07:20:00;12.50;99.90
3713;DHT22;1872;51.406;6.856;2023-05-16T07:22:26;12.80;99.90
3713;DHT22;1872;51.406;6.856;2023-05-16T07:24:52;13.10;99.90
3713;DHT22;1872;51.406;6.856;2023-05-16T07:27:21;13.40;99.90
3713;DHT22;1872;51.406;6.856;2023-05-16T07:29:49;13.80;99.90
3713;DHT22;1872;51.406;6.856;2023-05-16T07:32:15;14.30;99.90
3713;DHT22;1872;51.406;6.856;2023-05-16T07:34:40;14.70;99.90
3713;DHT22;1872;51.406;6.856;2023-05-16T07:37:06;14.70;99.90
3713;DHT22;1872;51.406;6.856;2023-05-16T07:39:38;14.60;99.90
3713;DHT22;1872;51.406;6.856;2023-05-16T07:42:03;14.50;99.90
3713;DHT22;1872;51.406;6.856;2023-05-16T07:44:29;14.50;99.90
3713;DHT22;1872;51.406;6.856;2023-05-16T07:46:55;14.50;99.90
3713;DHT22;1872;51.406;6.856;2023-05-16T07:49:21;14.60;99.90
3713;DHT22;1872;51.406;6.856;2023-05-16T07:51:46;14.70;99.90
3713;DHT22;1872;51.406;6.856;2023-05-16T07:54:12;15.10;99.90
3713;DHT22;1872;51.406;6.856;2023-05-16T07:56:38;15.60;99.90
3713;DHT22;1872;51.406;6.856;2023-05-16T07:59:04;16.00;99.90
3713;DHT22;1872;51.406;6.856;2023-05-16T08:01:30;16.20;99.90
3713;DHT22;1872;51.406;6.856;2023-05-16T08:03:56;16.60;99.90
3713;DHT22;1872;51.406;6.856;2023-05-16T08:06:21;16.90;99.90
3713;DHT22;1872;51.406;6.856;2023-05-16T08:08:47;16.80;99.90
3713;DHT22;1872;51.406;6.856;2023-05-16T08:11:14;16.70;99.90
3713;DHT22;1872;51.406;6.856;2023-05-16T08:13:40;16.40;99.90
3713;DHT22;1872;51.406;6.856;2023-05-16T08:16:05;16.40;99.90
3713;DHT22;1872;51.406;6.856;2023-05-16T08:18:31;16.50;99.90
3713;DHT22;1872;51.406;6.856;2023-05-16T08:20:57;16.70;99.90
3713;DHT22;1872;51.406;6.856;2023-05-16T08:23:23;16.70;99.90
3713;DHT22;1872;51.406;6.856;2023-05-16T08:25:48;16.80;99.90
3713;DHT22;1872;51.406;6.856;2023-05-16T08:28:14;16.80;99.90
3713;DHT22;1872;51.406;6.856;2023-05-16T08:30:41;17.00;99.90
3713;DHT22;1872;51.406;6.856;2023-05-16T08:33:06;17.00;99.90
3713;DHT22;1872;51.406;6.856;2023-05-16T08:35:32;16.90;99.90
3713;DHT22;1872;51.406;6.856;2023-05-16T08:38:00;16.80;99.90
3713;DHT22;1872;51.406;6.856;2023-05-16T08:40:27;16.80;99.90
3713;DHT22;1872;51.406;6.856;2023-05-16T08:42:53;17.00;99.90
3713;DHT22;1872;51.406;6.856;2023-05-16T08:45:20;17.00;99.90
3713;DHT22;1872;51.406;6.856;2023-05-16T08:47:49;17.10;99.90
3713;DHT22;1872;51.406;6.856;2023-05-16T08:50:16;17.40;99.90
3713;DHT22;1872;51.406;6.856;2023-05-16T08:52:43;17.50;99.90
3713;DHT22;1872;51.406;6.856;2023-05-16T08:55:08;17.20;99.90
3713;DHT22;1872;51.406;6.856;2023-05-16T08:57:36;17.10;99.90
3713;DHT22;1872;51.406;6.856;2023-05-16T09:00:03;17.20;99.90
3713;DHT22;1872;51.406;6.856;2023-05-16T09:02:32;17.40;99.90
3713;DHT22;1872;51.406;6.856;2023-05-16T09:04:58;17.40;99.90
3713;DHT22;1872;51.406;6.856;2023-05-16T09:07:24;17.30;99.90
3713;DHT22;1872;51.406;6.856;2023-05-16T09:09:50;17.00;99.90
3713;DHT22;1872;51.406;6.856;2023-05-16T09:12:15;16.60;99.90
3713;DHT22;1872;51.406;6.856;2023-05-16T09:14:41;16.10;99.90
3713;DHT22;1872;51.406;6.856;2023-05-16T09:17:10;15.80;99.90
3713;DHT22;1872;51.406;6.856;2023-05-16T09:19:41;15.70;99.90
3713;DHT22;1872;51.406;6.856;2023-05-16T09:22:14;15.80;99.90
3713;DHT22;1872;51.406;6.856;2023-05-16T09:24:44;15.90;99.90
3713;DHT22;1872;51.406;6.856;2023-05-16T09:27:14;15.90;99.90
3713;DHT22;1872;51.406;6.856;2023-05-16T09:29:41;16.00;99.90
3713;DHT22;1872;51.406;6.856;2023-05-16T09:32:12;16.10;99.90
3713;DHT22;1872;51.406;6.856;2023-05-16T09:34:48;16.20;99.90
3713;DHT22;1872;51.406;6.856;2023-05-16T09:37:16;16.10;99.30
3713;DHT22;1872;51.406;6.856;2023-05-16T09:39:46;16.20;99.40
3713;DHT22;1872;51.406;6.856;2023-05-16T09:42:15;16.10;98.60
3713;DHT22;1872;51.406;6.856;2023-05-16T09:44:53;16.10;98.30
3713;DHT22;1872;51.406;6.856;2023-05-16T09:47:21;15.90;97.40
3713;DHT22;1872;51.406;6.856;2023-05-16T09:49:51;15.80;97.40
3713;DHT22;1872;51.406;6.856;2023-05-16T09:52:18;15.50;96.60
3713;DHT22;1872;51.406;6.856;2023-05-16T09:54:45;15.10;96.20
3713;DHT22;1872;51.406;6.856;2023-05-16T09:57:20;14.90;96.30
3713;DHT22;1872;51.406;6.856;2023-05-16T09:59:51;14.70;96.60
3713;DHT22;1872;51.406;6.856;2023-05-16T10:02:17;14.50;96.70
3713;DHT22;1872;51.406;6.856;2023-05-16T10:04:44;14.40;97.00
3713;DHT22;1872;51.406;6.856;2023-05-16T10:07:10;14.40;97.70
3713;DHT22;1872;51.406;6.856;2023-05-16T10:09:38;14.60;98.40
3713;DHT22;1872;51.406;6.856;2023-05-16T10:12:07;14.70;98.80
3713;DHT22;1872;51.406;6.856;2023-05-16T10:14:37;14.80;98.90
3713;DHT22;1872;51.406;6.856;2023-05-16T10:17:05;15.00;99.20
3713;DHT22;1872;51.406;6.856;2023-05-16T10:19:35;15.20;99.20
3713;DHT22;1872;51.406;6.856;2023-05-16T10:22:04;15.20;98.70
3713;DHT22;1872;51.406;6.856;2023-05-16T10:27:22;15.20;98.60
3713;DHT22;1872;51.406;6.856;2023-05-16T10:29:49;15.20;98.80
3713;DHT22;1872;51.406;6.856;2023-05-16T10:32:15;15.10;98.80
3713;DHT22;1872;51.406;6.856;2023-05-16T10:34:42;14.90;99.00
3713;DHT22;1872;51.406;6.856;2023-05-16T10:37:09;14.90;99.60
3713;DHT22;1872;51.406;6.856;2023-05-16T10:39:35;15.00;99.90
3713;DHT22;1872;51.406;6.856;2023-05-16T10:42:02;15.20;99.90
3713;DHT22;1872;51.406;6.856;2023-05-16T10:44:31;15.30;99.90
3713;DHT22;1872;51.406;6.856;2023-05-16T10:46:58;15.30;99.90
3713;DHT22;1872;51.406;6.856;2023-05-16T10:49:25;15.30;99.90
3713;DHT22;1872;51.406;6.856;2023-05-16T10:52:08;15.20;99.90
3713;DHT22;1872;51.406;6.856;2023-05-16T10:54:36;15.00;99.90
3713;DHT22;1872;51.406;6.856;2023-05-16T10:57:19;14.90;99.80
3713;DHT22;1872;51.406;6.856;2023-05-16T10:59:49;14.70;99.90
3713;DHT22;1872;51.406;6.856;2023-05-16T11:02:29;14.60;99.90
3713;DHT22;1872;51.406;6.856;2023-05-16T11:04:58;14.60;99.90
3713;DHT22;1872;51.406;6.856;2023-05-16T11:07:35;14.60;99.90
3713;DHT22;1872;51.406;6.856;2023-05-16T11:10:08;14.60;99.90
3713;DHT22;1872;51.406;6.856;2023-05-16T11:12:44;14.70;99.90
3713;DHT22;1872;51.406;6.856;2023-05-16T11:15:24;14.70;99.90
3713;DHT22;1872;51.406;6.856;2023-05-16T11:18:07;14.80;99.80
3713;DHT22;1872;51.406;6.856;2023-05-16T11:20:37;14.90;99.80
3713;DHT22;1872;51.406;6.856;2023-05-16T11:25:45;15.20;99.80
3713;DHT22;1872;51.406;6.856;2023-05-16T11:28:14;15.30;99.70
3713;DHT22;1872;51.406;6.856;2023-05-16T11:30:46;15.30;99.50
3713;DHT22;1872;51.406;6.856;2023-05-16T11:33:12;15.30;99.30
3713;DHT22;1872;51.406;6.856;2023-05-16T11:35:37;15.30;99.00
3713;DHT22;1872;51.406;6.856;2023-05-16T11:38:03;15.20;98.80
3713;DHT22;1872;51.406;6.856;2023-05-16T11:40:30;15.10;98.80
3713;DHT22;1872;51.406;6.856;2023-05-16T11:42:59;14.90;98.60
3713;DHT22;1872;51.406;6.856;2023-05-16T11:45:25;14.70;98.60
3713;DHT22;1872;51.406;6.856;2023-05-16T11:47:51;14.50;98.70
3713;DHT22;1872;51.406;6.856;2023-05-16T11:50:23;14.40;99.00
3713;DHT22;1872;51.406;6.856;2023-05-16T11:52:51;14.20;99.10
3713;DHT22;1872;51.406;6.856;2023-05-16T11:55:20;14.20;99.40
3713;DHT22;1872;51.406;6.856;2023-05-16T11:57:50;14.20;99.70
3713;DHT22;1872;51.406;6.856;2023-05-16T12:00:18;14.20;99.90
3713;DHT22;1872;51.406;6.856;2023-05-16T12:02:47;14.30;99.90
3713;DHT22;1872;51.406;6.856;2023-05-16T12:05:15;14.30;99.90
3713;DHT22;1872;51.406;6.856;2023-05-16T12:07:45;14.30;99.90
3713;DHT22;1872;51.406;6.856;2023-05-16T12:10:13;14.40;99.90
3713;DHT22;1872;51.406;6.856;2023-05-16T12:12:45;14.50;99.90
3713;DHT22;1872;51.406;6.856;2023-05-16T12:15:11;14.60;99.90
3713;DHT22;1872;51.406;6.856;2023-05-16T12:17:39;14.60;99.90
3713;DHT22;1872;51.406;6.856;2023-05-16T12:20:06;14.70;99.90
3713;DHT22;1872;51.406;6.856;2023-05-16T12:22:40;14.70;99.90
3713;DHT22;1872;51.406;6.856;2023-05-16T12:27:55;14.80;99.90
3713;DHT22;1872;51.406;6.856;2023-05-16T12:30:24;14.80;99.90
3713;DHT22;1872;51.406;6.856;2023-05-16T12:33:08;14.80;99.90
3713;DHT22;1872;51.406;6.856;2023-05-16T12:35:36;14.90;99.80
3713;DHT22;1872;51.406;6.856;2023-05-16T12:38:09;14.90;99.80
3713;DHT22;1872;51.406;6.856;2023-05-16T12:40:36;14.90;99.50
3713;DHT22;1872;51.406;6.856;2023-05-16T12:43:04;14.90;99.50
3713;DHT22;1872;51.406;6.856;2023-05-16T12:45:31;15.00;99.50
3713;DHT22;1872;51.406;6.856;2023-05-16T12:48:03;15.10;99.40
3713;DHT22;1872;51.406;6.856;2023-05-16T12:50:32;15.30;99.60
3713;DHT22;1872;51.406;6.856;2023-05-16T12:52:59;15.50;99.50
3713;DHT22;1872;51.406;6.856;2023-05-16T12:55:25;15.60;97.90
3713;DHT22;1872;51.406;6.856;2023-05-16T12:57:51;15.60;97.50
3713;DHT22;1872;51.406;6.856;2023-05-16T13:00:20;15.60;97.70
3713;DHT22;1872;51.406;6.856;2023-05-16T13:02:46;15.50;96.90
3713;DHT22;1872;51.406;6.856;2023-05-16T13:05:13;15.40;95.80
3713;DHT22;1872;51.406;6.856;2023-05-16T13:07:39;15.20;95.00
3713;DHT22;1872;51.406;6.856;2023-05-16T13:10:09;15.10;95.30
3713;DHT22;1872;51.406;6.856;2023-05-16T13:12:39;15.00;95.20
3713;DHT22;1872;51.406;6.856;2023-05-16T13:15:06;15.00;95.40
3713;DHT22;1872;51.406;6.856;2023-05-16T13:17:33;15.00;95.60
3713;DHT22;1872;51.406;6.856;2023-05-16T13:19:59;15.10;95.80
3713;DHT22;1872;51.406;6.856;2023-05-16T13:22:24;15.10;95.60
3713;DHT22;1872;51.406;6.856;2023-05-16T13:24:50;15.10;95.30
3713;DHT22;1872;51.406;6.856;2023-05-16T13:27:16;15.10;95.30
3713;DHT22;1872;51.406;6.856;2023-05-16T13:29:42;15.10;95.60
3713;DHT22;1872;51.406;6.856;2023-05-16T13:32:08;15.20;95.80
3713;DHT22;1872;51.406;6.856;2023-05-16T13:34:34;15.30;95.90
3713;DHT22;1872;51.406;6.856;2023-05-16T13:37:00;15.40;95.80
3713;DHT22;1872;51.406;6.856;2023-05-16T13:39:26;15.40;95.60
3713;DHT22;1872;51.406;6.856;2023-05-16T13:41:52;15.50;95.60
3713;DHT22;1872;51.406;6.856;2023-05-16T13:44:17;15.50;95.50
3713;DHT22;1872;51.406;6.856;2023-05-16T13:46:45;15.50;95.20
3713;DHT22;1872;51.406;6.856;2023-05-16T13:49:11;15.40;95.10
3713;DHT22;1872;51.406;6.856;2023-05-16T13:51:37;15.40;95.10
3713;DHT22;1872;51.406;6.856;2023-05-16T13:54:02;15.40;95.10
3713;DHT22;1872;51.406;6.856;2023-05-16T13:56:28;15.30;95.00
3713;DHT22;1872;51.406;6.856;2023-05-16T13:58:54;15.30;95.10
3713;DHT22;1872;51.406;6.856;2023-05-16T14:01:19;15.20;95.00
3713;DHT22;1872;51.406;6.856;2023-05-16T14:03:45;15.20;95.00
3713;DHT22;1872;51.406;6.856;2023-05-16T14:06:12;15.20;95.40
3713;DHT22;1872;51.406;6.856;2023-05-16T14:08:37;15.30;95.70
3713;DHT22;1872;51.406;6.856;2023-05-16T14:11:04;15.40;95.60
3713;DHT22;1872;51.406;6.856;2023-05-16T14:13:29;15.40;95.50
3713;DHT22;1872;51.406;6.856;2023-05-16T14:15:55;15.40;95.30
3713;DHT22;1872;51.406;6.856;2023-05-16T14:18:21;15.30;95.30
3713;DHT22;1872;51.406;6.856;2023-05-16T14:20:46;15.30;95.10
3713;DHT22;1872;51.406;6.856;2023-05-16T14:23:12;15.30;95.00
3713;DHT22;1872;51.406;6.856;2023-05-16T14:25:38;15.20;95.00
3713;DHT22;1872;51.406;6.856;2023-05-16T14:28:04;15.10;95.00
3713;DHT22;1872;51.406;6.856;2023-05-16T14:30:31;15.00;95.30
3713;DHT22;1872;51.406;6.856;2023-05-16T14:32:56;15.00;95.20
3713;DHT22;1872;51.406;6.856;2023-05-16T14:35:24;15.10;95.30
3713;DHT22;1872;51.406;6.856;2023-05-16T14:37:50;15.20;95.10
3713;DHT22;1872;51.406;6.856;2023-05-16T14:40:16;15.20;94.90
3713;DHT22;1872;51.406;6.856;2023-05-16T14:42:41;15.30;94.60
3713;DHT22;1872;51.406;6.856;2023-05-16T14:45:07;15.20;94.20
3713;DHT22;1872;51.406;6.856;2023-05-16T14:47:33;15.20;93.90
3713;DHT22;1872;51.406;6.856;2023-05-16T14:49:59;15.10;93.60
3713;DHT22;1872;51.406;6.856;2023-05-16T14:52:27;15.00;93.60
3713;DHT22;1872;51.406;6.856;2023-05-16T14:54:53;15.00;93.90
3713;DHT22;1872;51.406;6.856;2023-05-16T14:57:18;15.00;93.90
3713;DHT22;1872;51.406;6.856;2023-05-16T14:59:44;15.00;93.90
3713;DHT22;1872;51.406;6.856;2023-05-16T15:02:11;14.90;93.90
3713;DHT22;1872;51.406;6.856;2023-05-16T15:04:37;14.90;94.00
3713;DHT22;1872;51.406;6.856;2023-05-16T15:07:03;14.80;94.00
3713;DHT22;1872;51.406;6.856;2023-05-16T15:09:28;14.80;94.10
3713;DHT22;1872;51.406;6.856;2023-05-16T15:11:54;14.80;94.20
3713;DHT22;1872;51.406;6.856;2023-05-16T15:14:19;14.80;94.10
3713;DHT22;1872;51.406;6.856;2023-05-16T15:16:45;14.80;94.20
3713;DHT22;1872;51.406;6.856;2023-05-16T15:19:12;14.80;94.30
3713;DHT22;1872;51.406;6.856;2023-05-16T15:21:37;14.80;94.80
3713;DHT22;1872;51.406;6.856;2023-05-16T15:24:03;14.80;94.60
3713;DHT22;1872;51.406;6.856;2023-05-16T15:26:29;14.80;94.60
3713;DHT22;1872;51.406;6.856;2023-05-16T15:28:55;14.70;94.60
3713;DHT22;1872;51.406;6.856;2023-05-16T15:31:21;14.70;94.80
3713;DHT22;1872;51.406;6.856;2023-05-16T15:33:47;14.70;94.80
3713;DHT22;1872;51.406;6.856;2023-05-16T15:36:12;14.80;94.80
3713;DHT22;1872;51.406;6.856;2023-05-16T15:38:38;14.70;94.80
3713;DHT22;1872;51.406;6.856;2023-05-16T15:41:09;14.70;94.80
3713;DHT22;1872;51.406;6.856;2023-05-16T15:43:35;14.70;94.80
3713;DHT22;1872;51.406;6.856;2023-05-16T15:46:00;14.80;94.80
3713;DHT22;1872;51.406;6.856;2023-05-16T15:48:26;14.80;95.10
3713;DHT22;1872;51.406;6.856;2023-05-16T15:50:52;14.80;95.20
3713;DHT22;1872;51.406;6.856;2023-05-16T15:53:17;14.80;95.20
3713;DHT22;1872;51.406;6.856;2023-05-16T15:55:43;14.80;95.20
3713;DHT22;1872;51.406;6.856;2023-05-16T15:58:08;14.80;95.40
3713;DHT22;1872;51.406;6.856;2023-05-16T16:00:34;14.80;95.60
3713;DHT22;1872;51.406;6.856;2023-05-16T16:03:00;14.70;95.60
3713;DHT22;1872;51.406;6.856;2023-05-16T16:05:26;14.70;95.70
3713;DHT22;1872;51.406;6.856;2023-05-16T16:07:51;14.60;95.80
3713;DHT22;1872;51.406;6.856;2023-05-16T16:10:17;14.60;96.00
3713;DHT22;1872;51.406;6.856;2023-05-16T16:12:43;14.50;96.10
3713;DHT22;1872;51.406;6.856;2023-05-16T16:15:22;14.40;96.20
3713;DHT22;1872;51.406;6.856;2023-05-16T16:17:47;14.20;96.40
3713;DHT22;1872;51.406;6.856;2023-05-16T16:20:13;14.20;96.60